sensor_id;sensor_type;location;lat;lon;timestamp;pressure;altitude;pressure_sealevel;temperature;humidity
84914;BME280;75177;43.832;5.974;2024-03-29T00:01:34;94243.50;;;13.46;100.00
84914;BME280;75177;43.832;5.974;2024-03-29T00:03:59;94248.44;;;13.42;100.00
84914;BME280;75177;43.832;5.974;2024-03-29T00:06:25;94255.88;;;13.40;97.62
84914;BME280;75177;43.832;5.974;2024-03-29T00:08:50;94254.41;;;13.44;100.00
84914;BME280;75177;43.832;5.974;2024-03-29T00:11:15;94248.66;;;13.41;100.00
84914;BME280;75177;43.832;5.974;2024-03-29T00:13:41;94254.03;;;13.34;97.23
84914;BME280;75177;43.832;5.974;2024-03-29T00:16:06;94257.31;;;13.30;93.84
84914;BME280;75177;43.832;5.974;2024-03-29T00:18:32;94253.84;;;13.23;94.01
84914;BME280;75177;43.832;5.974;2024-03-29T00:20:57;94250.75;;;13.26;99.44
84914;BME280;75177;43.832;5.974;2024-03-29T00:23:22;94252.00;;;13.17;95.85
84914;BME280;75177;43.832;5.974;2024-03-29T00:25:48;94240.84;;;13.20;95.46
84914;BME280;75177;43.832;5.974;2024-03-29T00:28:13;94239.22;;;13.19;95.76
84914;BME280;75177;43.832;5.974;2024-03-29T00:30:39;94242.31;;;13.16;95.74
84914;BME280;75177;43.832;5.974;2024-03-29T00:33:04;94242.91;;;13.18;99.46
84914;BME280;75177;43.832;5.974;2024-03-29T00:35:30;94218.00;;;13.11;100.00
84914;BME280;75177;43.832;5.974;2024-03-29T00:37:56;94237.94;;;13.28;100.00
84914;BME280;75177;43.832;5.974;2024-03-29T00:40:21;94218.81;;;13.18;99.79
84914;BME280;75177;43.832;5.974;2024-03-29T00:42:47;94212.66;;;13.11;98.84
84914;BME280;75177;43.832;5.974;2024-03-29T00:45:12;94227.66;;;13.25;99.58
84914;BME280;75177;43.832;5.974;2024-03-29T00:47:38;94222.31;;;13.25;100.00
84914;BME280;75177;43.832;5.974;2024-03-29T00:50:04;94222.31;;;13.25;97.00
84914;BME280;75177;43.832;5.974;2024-03-29T00:52:29;94207.25;;;13.24;99.49
84914;BME280;75177;43.832;5.974;2024-03-29T00:54:56;94204.56;;;13.24;100.00
84914;BME280;75177;43.832;5.974;2024-03-29T00:57:21;94200.44;;;13.28;100.00
84914;BME280;75177;43.832;5.974;2024-03-29T00:59:47;94200.88;;;13.25;98.52
84914;BME280;75177;43.832;5.974;2024-03-29T01:02:12;94189.53;;;13.29;100.00
84914;BME280;75177;43.832;5.974;2024-03-29T01:04:38;94184.78;;;13.25;100.00
84914;BME280;75177;43.832;5.974;2024-03-29T01:07:05;94196.72;;;13.29;96.77
84914;BME280;75177;43.832;5.974;2024-03-29T01:09:30;94174.91;;;13.25;100.00
84914;BME280;75177;43.832;5.974;2024-03-29T01:11:55;94175.28;;;13.29;100.00
84914;BME280;75177;43.832;5.974;2024-03-29T01:14:21;94178.38;;;13.26;100.00
84914;BME280;75177;43.832;5.974;2024-03-29T01:16:47;94182.28;;;13.30;100.00
84914;BME280;75177;43.832;5.974;2024-03-29T01:19:12;94181.06;;;13.26;100.00
84914;BME280;75177;43.832;5.974;2024-03-29T01:21:37;94180.66;;;13.29;100.00
84914;BME280;75177;43.832;5.974;2024-03-29T01:24:03;94183.13;;;13.24;100.00
84914;BME280;75177;43.832;5.974;2024-03-29T01:26:30;94192.59;;;13.26;100.00
84914;BME280;75177;43.832;5.974;2024-03-29T01:28:55;94190.97;;;13.25;100.00
84914;BME280;75177;43.832;5.974;2024-03-29T01:31:22;94188.47;;;13.24;100.00
84914;BME280;75177;43.832;5.974;2024-03-29T01:33:48;94200.44;;;13.28;100.00
84914;BME280;75177;43.832;5.974;2024-03-29T01:36:13;94185.78;;;13.30;100.00
84914;BME280;75177;43.832;5.974;2024-03-29T01:38:39;94175.69;;;13.26;100.00
84914;BME280;75177;43.832;5.974;2024-03-29T01:41:04;94186.41;;;13.26;100.00
84914;BME280;75177;43.832;5.974;2024-03-29T01:43:30;94176.91;;;13.30;100.00
84914;BME280;75177;43.832;5.974;2024-03-29T01:45:56;94180.22;;;13.32;100.00
84914;BME280;75177;43.832;5.974;2024-03-29T01:48:25;94184.78;;;13.31;100.00
84914;BME280;75177;43.832;5.974;2024-03-29T01:50:53;94176.13;;;13.29;100.00
84914;BME280;75177;43.832;5.974;2024-03-29T01:53:19;94166.19;;;13.30;100.00
84914;BME280;75177;43.832;5.974;2024-03-29T01:55:46;94168.69;;;13.31;100.00
84914;BME280;75177;43.832;5.974;2024-03-29T01:58:12;94167.00;;;13.37;100.00
84914;BME280;75177;43.832;5.974;2024-03-29T02:00:45;94176.91;;;13.36;100.00
84914;BME280;75177;43.832;5.974;2024-03-29T02:03:14;94174.44;;;13.35;100.00
84914;BME280;75177;43.832;5.974;2024-03-29T02:05:41;94160.44;;;13.33;100.00
84914;BME280;75177;43.832;5.974;2024-03-29T02:08:16;94174.03;;;13.38;100.00
84914;BME280;75177;43.832;5.974;2024-03-29T02:10:43;94168.22;;;13.41;100.00
84914;BME280;75177;43.832;5.974;2024-03-29T02:13:09;94159.19;;;13.35;100.00
84914;BME280;75177;43.832;5.974;2024-03-29T02:15:34;94170.31;;;13.39;100.00
84914;BME280;75177;43.832;5.974;2024-03-29T02:18:00;94167.00;;;13.37;100.00
84914;BME280;75177;43.832;5.974;2024-03-29T02:20:25;94183.91;;;13.44;100.00
84914;BME280;75177;43.832;5.974;2024-03-29T02:22:54;94185.53;;;13.45;100.00
84914;BME280;75177;43.832;5.974;2024-03-29T02:25:20;94179.78;;;13.48;100.00
84914;BME280;75177;43.832;5.974;2024-03-29T02:27:47;94177.69;;;13.50;100.00
84914;BME280;75177;43.832;5.974;2024-03-29T02:30:13;94176.47;;;13.46;100.00
84914;BME280;75177;43.832;5.974;2024-03-29T02:32:39;94154.63;;;13.36;100.00
84914;BME280;75177;43.832;5.974;2024-03-29T02:35:05;94170.69;;;13.49;100.00
84914;BME280;75177;43.832;5.974;2024-03-29T02:37:30;94163.69;;;13.48;100.00
84914;BME280;75177;43.832;5.974;2024-03-29T02:39:56;94172.75;;;13.47;100.00
84914;BME280;75177;43.832;5.974;2024-03-29T02:42:21;94187.97;;;13.53;100.00
84914;BME280;75177;43.832;5.974;2024-03-29T02:44:46;94175.63;;;13.52;100.00
84914;BME280;75177;43.832;5.974;2024-03-29T02:47:12;94169.81;;;13.55;100.00
84914;BME280;75177;43.832;5.974;2024-03-29T02:49:37;94159.53;;;13.58;100.00
84914;BME280;75177;43.832;5.974;2024-03-29T02:52:02;94171.91;;;13.53;100.00
84914;BME280;75177;43.832;5.974;2024-03-29T02:54:28;94169.03;;;13.54;100.00
84914;BME280;75177;43.832;5.974;2024-03-29T02:56:53;94171.09;;;13.52;100.00
84914;BME280;75177;43.832;5.974;2024-03-29T02:59:19;94160.75;;;13.56;100.00
84914;BME280;75177;43.832;5.974;2024-03-29T03:01:44;94140.16;;;13.50;100.00
84914;BME280;75177;43.832;5.974;2024-03-29T03:04:10;94159.28;;;13.60;100.00
84914;BME280;75177;43.832;5.974;2024-03-29T03:06:35;94127.78;;;13.49;100.00
84914;BME280;75177;43.832;5.974;2024-03-29T03:09:01;94155.38;;;13.62;100.00
84914;BME280;75177;43.832;5.974;2024-03-29T03:11:45;94154.16;;;13.58;100.00
84914;BME280;75177;43.832;5.974;2024-03-29T03:14:10;94154.53;;;13.62;100.00
84914;BME280;75177;43.832;5.974;2024-03-29T03:16:36;94170.19;;;13.65;100.00
84914;BME280;75177;43.832;5.974;2024-03-29T03:19:01;94161.72;;;13.68;100.00
84914;BME280;75177;43.832;5.974;2024-03-29T03:21:27;94172.88;;;13.65;100.00
84914;BME280;75177;43.832;5.974;2024-03-29T03:23:52;94140.56;;;13.53;100.00
84914;BME280;75177;43.832;5.974;2024-03-29T03:26:18;94170.19;;;13.65;100.00
84914;BME280;75177;43.832;5.974;2024-03-29T03:28:43;94175.56;;;13.65;100.00
84914;BME280;75177;43.832;5.974;2024-03-29T03:31:08;94160.50;;;13.64;100.00
84914;BME280;75177;43.832;5.974;2024-03-29T03:33:34;94171.03;;;13.65;100.00
84914;BME280;75177;43.832;5.974;2024-03-29T03:35:59;94171.03;;;13.65;100.00
84914;BME280;75177;43.832;5.974;2024-03-29T03:38:25;94167.31;;;13.66;100.00
84914;BME280;75177;43.832;5.974;2024-03-29T03:40:50;94161.16;;;13.59;100.00
84914;BME280;75177;43.832;5.974;2024-03-29T03:43:15;94164.28;;;13.56;100.00
84914;BME280;75177;43.832;5.974;2024-03-29T03:45:41;94162.38;;;13.63;100.00
84914;BME280;75177;43.832;5.974;2024-03-29T03:48:08;94163.59;;;13.61;100.00
84914;BME280;75177;43.832;5.974;2024-03-29T03:50:34;94176.38;;;13.65;100.00
84914;BME280;75177;43.832;5.974;2024-03-29T03:53:00;94192.69;;;13.64;100.00
84914;BME280;75177;43.832;5.974;2024-03-29T03:55:26;94184.22;;;13.67;100.00
84914;BME280;75177;43.832;5.974;2024-03-29T03:57:53;94191.66;;;13.65;100.00
84914;BME280;75177;43.832;5.974;2024-03-29T04:00:20;94186.28;;;13.65;100.00
84914;BME280;75177;43.832;5.974;2024-03-29T04:02:49;94192.09;;;13.62;100.00
84914;BME280;75177;43.832;5.974;2024-03-29T04:05:17;94174.78;;;13.58;100.00
84914;BME280;75177;43.832;5.974;2024-03-29T04:07:42;94178.06;;;13.60;100.00
84914;BME280;75177;43.832;5.974;2024-03-29T04:10:08;94183.81;;;13.63;100.00
84914;BME280;75177;43.832;5.974;2024-03-29T04:12:33;94186.28;;;13.65;100.00
84914;BME280;75177;43.832;5.974;2024-03-29T04:14:59;94188.34;;;13.63;100.00
84914;BME280;75177;43.832;5.974;2024-03-29T04:17:24;94183.00;;;13.63;100.00
84914;BME280;75177;43.832;5.974;2024-03-29T04:19:49;94194.16;;;13.60;100.00
84914;BME280;75177;43.832;5.974;2024-03-29T04:22:15;94199.09;;;13.63;100.00
84914;BME280;75177;43.832;5.974;2024-03-29T04:24:40;94208.56;;;13.65;100.00
84914;BME280;75177;43.832;5.974;2024-03-29T04:27:06;94202.81;;;13.62;100.00
84914;BME280;75177;43.832;5.974;2024-03-29T04:29:31;94199.94;;;13.57;100.00
84914;BME280;75177;43.832;5.974;2024-03-29T04:31:57;94209.00;;;13.62;100.00
84914;BME280;75177;43.832;5.974;2024-03-29T04:34:22;94203.22;;;13.59;100.00
84914;BME280;75177;43.832;5.974;2024-03-29T04:36:47;94207.56;;;13.60;100.00
84914;BME280;75177;43.832;5.974;2024-03-29T04:39:13;94211.28;;;13.59;100.00
84914;BME280;75177;43.832;5.974;2024-03-29T04:41:38;94211.50;;;13.57;100.00
84914;BME280;75177;43.832;5.974;2024-03-29T04:44:04;94202.00;;;13.55;100.00
84914;BME280;75177;43.832;5.974;2024-03-29T04:46:30;94206.97;;;13.51;100.00
84914;BME280;75177;43.832;5.974;2024-03-29T04:48:56;94211.09;;;13.54;100.00
84914;BME280;75177;43.832;5.974;2024-03-29T04:51:22;94219.13;;;13.54;100.00
84914;BME280;75177;43.832;5.974;2024-03-29T04:53:47;94216.88;;;13.51;100.00
84914;BME280;75177;43.832;5.974;2024-03-29T04:56:13;94225.53;;;13.53;100.00
84914;BME280;75177;43.832;5.974;2024-03-29T04:58:38;94229.25;;;13.52;100.00
84914;BME280;75177;43.832;5.974;2024-03-29T05:01:03;94229.44;;;13.50;100.00
84914;BME280;75177;43.832;5.974;2024-03-29T05:03:29;94238.53;;;13.49;100.00
84914;BME280;75177;43.832;5.974;2024-03-29T05:05:54;94233.81;;;13.45;100.00
84914;BME280;75177;43.832;5.974;2024-03-29T05:08:20;94241.84;;;13.51;100.00
84914;BME280;75177;43.832;5.974;2024-03-29T05:10:48;94201.66;;;13.32;100.00
84914;BME280;75177;43.832;5.974;2024-03-29T05:13:15;94236.25;;;13.53;100.00
84914;BME280;75177;43.832;5.974;2024-03-29T05:15:40;94233.78;;;13.51;100.00
84914;BME280;75177;43.832;5.974;2024-03-29T05:18:06;94249.66;;;13.53;100.00
84914;BME280;75177;43.832;5.974;2024-03-29T05:20:31;94238.53;;;13.49;100.00
84914;BME280;75177;43.832;5.974;2024-03-29T05:22:58;94244.13;;;13.48;100.00
84914;BME280;75177;43.832;5.974;2024-03-29T05:25:24;94242.03;;;13.50;100.00
84914;BME280;75177;43.832;5.974;2024-03-29T05:27:50;94242.03;;;13.50;100.00
84914;BME280;75177;43.832;5.974;2024-03-29T05:30:15;94242.03;;;13.50;100.00
84914;BME280;75177;43.832;5.974;2024-03-29T05:32:41;94238.75;;;13.48;100.00
84914;BME280;75177;43.832;5.974;2024-03-29T05:35:07;94224.72;;;13.46;100.00
84914;BME280;75177;43.832;5.974;2024-03-29T05:37:35;94245.13;;;13.53;100.00
84914;BME280;75177;43.832;5.974;2024-03-29T05:40:00;94236.69;;;13.50;100.00
84914;BME280;75177;43.832;5.974;2024-03-29T05:42:26;94231.72;;;13.47;100.00
84914;BME280;75177;43.832;5.974;2024-03-29T05:44:52;94242.03;;;13.50;100.00
84914;BME280;75177;43.832;5.974;2024-03-29T05:47:18;94242.03;;;13.50;100.00
84914;BME280;75177;43.832;5.974;2024-03-29T05:49:44;94238.75;;;13.48;100.00
84914;BME280;75177;43.832;5.974;2024-03-29T05:52:09;94212.38;;;13.32;100.00
84914;BME280;75177;43.832;5.974;2024-03-29T05:54:35;94228.25;;;13.40;100.00
84914;BME280;75177;43.832;5.974;2024-03-29T05:57:01;94237.94;;;13.41;100.00
84914;BME280;75177;43.832;5.974;2024-03-29T05:59:26;94245.13;;;13.47;100.00
84914;BME280;75177;43.832;5.974;2024-03-29T06:01:52;94253.19;;;13.47;100.00
84914;BME280;75177;43.832;5.974;2024-03-29T06:04:17;94252.78;;;13.50;100.00
84914;BME280;75177;43.832;5.974;2024-03-29T06:06:46;94254.84;;;13.48;100.00
84914;BME280;75177;43.832;5.974;2024-03-29T06:09:12;94245.56;;;13.44;100.00
84914;BME280;75177;43.832;5.974;2024-03-29T06:11:38;94253.78;;;13.49;100.00
84914;BME280;75177;43.832;5.974;2024-03-29T06:14:03;94260.59;;;13.51;100.00
84914;BME280;75177;43.832;5.974;2024-03-29T06:16:29;94248.66;;;13.47;100.00
84914;BME280;75177;43.832;5.974;2024-03-29T06:19:12;94257.91;;;13.51;100.00
84914;BME280;75177;43.832;5.974;2024-03-29T06:21:38;94251.72;;;13.51;100.00
84914;BME280;75177;43.832;5.974;2024-03-29T06:24:05;94262.06;;;13.47;100.00
84914;BME280;75177;43.832;5.974;2024-03-29T06:26:31;94262.28;;;13.46;100.00
84914;BME280;75177;43.832;5.974;2024-03-29T06:28:57;94262.28;;;13.46;100.00
84914;BME280;75177;43.832;5.974;2024-03-29T06:31:22;94284.94;;;13.50;100.00
84914;BME280;75177;43.832;5.974;2024-03-29T06:33:47;94272.56;;;13.49;100.00
84914;BME280;75177;43.832;5.974;2024-03-29T06:36:13;94262.28;;;13.46;100.00
84914;BME280;75177;43.832;5.974;2024-03-29T06:38:38;94263.91;;;13.47;100.00
84914;BME280;75177;43.832;5.974;2024-03-29T06:41:03;94257.94;;;13.45;100.00
84914;BME280;75177;43.832;5.974;2024-03-29T06:43:29;94266.78;;;13.52;100.00
84914;BME280;75177;43.832;5.974;2024-03-29T06:45:54;94271.31;;;13.51;100.00
84914;BME280;75177;43.832;5.974;2024-03-29T06:48:21;94270.50;;;13.51;100.00
84914;BME280;75177;43.832;5.974;2024-03-29T06:50:46;94275.03;;;13.50;100.00
84914;BME280;75177;43.832;5.974;2024-03-29T06:53:12;94263.28;;;13.45;100.00
84914;BME280;75177;43.832;5.974;2024-03-29T06:55:37;94275.84;;;13.51;100.00
84914;BME280;75177;43.832;5.974;2024-03-29T06:58:03;94277.53;;;13.52;100.00
84914;BME280;75177;43.832;5.974;2024-03-29T07:00:29;94274.41;;;13.55;100.00
84914;BME280;75177;43.832;5.974;2024-03-29T07:02:54;94264.28;;;13.57;100.00
84914;BME280;75177;43.832;5.974;2024-03-29T07:05:20;94258.31;;;13.55;100.00
84914;BME280;75177;43.832;5.974;2024-03-29T07:07:45;94244.72;;;13.50;100.00
84914;BME280;75177;43.832;5.974;2024-03-29T07:10:12;94261.00;;;13.55;100.00
84914;BME280;75177;43.832;5.974;2024-03-29T07:12:38;94262.66;;;13.56;100.00
84914;BME280;75177;43.832;5.974;2024-03-29T07:15:03;94261.19;;;13.60;100.00
84914;BME280;75177;43.832;5.974;2024-03-29T07:17:29;94252.31;;;13.59;100.00
84914;BME280;75177;43.832;5.974;2024-03-29T07:19:54;94251.50;;;13.59;100.00
84914;BME280;75177;43.832;5.974;2024-03-29T07:22:20;94249.41;;;13.61;100.00
84914;BME280;75177;43.832;5.974;2024-03-29T07:24:45;94244.66;;;13.63;100.00
84914;BME280;75177;43.832;5.974;2024-03-29T07:27:10;94254.78;;;13.67;100.00
84914;BME280;75177;43.832;5.974;2024-03-29T07:29:38;94259.31;;;13.67;100.00
84914;BME280;75177;43.832;5.974;2024-03-29T07:32:04;94246.53;;;13.69;100.00
84914;BME280;75177;43.832;5.974;2024-03-29T07:34:29;94252.72;;;13.63;100.00
84914;BME280;75177;43.832;5.974;2024-03-29T07:36:54;94249.03;;;13.64;100.00
84914;BME280;75177;43.832;5.974;2024-03-29T07:39:20;94257.25;;;13.69;100.00
84914;BME280;75177;43.832;5.974;2024-03-29T07:41:45;94243.84;;;13.69;100.00
84914;BME280;75177;43.832;5.974;2024-03-29T07:44:11;94253.53;;;13.70;100.00
84914;BME280;75177;43.832;5.974;2024-03-29T07:46:37;94251.47;;;13.72;100.00
84914;BME280;75177;43.832;5.974;2024-03-29T07:49:03;94250.25;;;13.68;100.00
84914;BME280;75177;43.832;5.974;2024-03-29T07:51:29;94251.06;;;13.75;100.00
84914;BME280;75177;43.832;5.974;2024-03-29T07:53:55;94244.25;;;13.66;100.00
84914;BME280;75177;43.832;5.974;2024-03-29T07:56:20;94263.00;;;13.79;100.00
84914;BME280;75177;43.832;5.974;2024-03-29T07:58:51;94262.34;;;13.84;100.00
84914;BME280;75177;43.832;5.974;2024-03-29T08:01:21;94253.91;;;13.80;100.00
84914;BME280;75177;43.832;5.974;2024-03-29T08:03:47;94255.75;;;13.86;100.00
84914;BME280;75177;43.832;5.974;2024-03-29T08:06:12;94264.00;;;13.91;100.00
84914;BME280;75177;43.832;5.974;2024-03-29T08:08:38;94247.69;;;13.86;100.00
84914;BME280;75177;43.832;5.974;2024-03-29T08:11:03;94259.66;;;13.90;100.00
84914;BME280;75177;43.832;5.974;2024-03-29T08:13:29;94244.78;;;13.94;100.00
84914;BME280;75177;43.832;5.974;2024-03-29T08:15:58;94258.78;;;13.96;100.00
84914;BME280;75177;43.832;5.974;2024-03-29T08:18:24;94248.47;;;14.00;100.00
84914;BME280;75177;43.832;5.974;2024-03-29T08:20:49;94251.56;;;14.03;100.00
84914;BME280;75177;43.832;5.974;2024-03-29T08:23:15;94257.88;;;14.15;100.00
84914;BME280;75177;43.832;5.974;2024-03-29T08:25:40;94258.34;;;14.12;100.00
84914;BME280;75177;43.832;5.974;2024-03-29T08:28:06;94252.97;;;14.12;100.00
84914;BME280;75177;43.832;5.974;2024-03-29T08:30:31;94252.09;;;14.18;100.00
84914;BME280;75177;43.832;5.974;2024-03-29T08:33:03;94250.91;;;14.14;100.00
84914;BME280;75177;43.832;5.974;2024-03-29T08:35:38;94243.00;;;14.19;100.00
84914;BME280;75177;43.832;5.974;2024-03-29T08:38:08;94227.34;;;14.16;100.00
84914;BME280;75177;43.832;5.974;2024-03-29T08:40:33;94222.75;;;14.23;100.00
84914;BME280;75177;43.832;5.974;2024-03-29T08:42:59;94233.47;;;14.23;100.00
84914;BME280;75177;43.832;5.974;2024-03-29T08:45:25;94221.50;;;14.26;100.00
84914;BME280;75177;43.832;5.974;2024-03-29T08:47:50;94220.06;;;14.23;100.00
84914;BME280;75177;43.832;5.974;2024-03-29T08:50:16;94225.66;;;14.28;100.00
84914;BME280;75177;43.832;5.974;2024-03-29T08:52:41;94219.41;;;14.34;100.00
84914;BME280;75177;43.832;5.974;2024-03-29T08:55:07;94220.63;;;14.38;100.00
84914;BME280;75177;43.832;5.974;2024-03-29T08:57:33;94219.00;;;14.37;100.00
84914;BME280;75177;43.832;5.974;2024-03-29T08:59:59;94231.97;;;14.40;100.00
84914;BME280;75177;43.832;5.974;2024-03-29T09:02:25;94227.66;;;14.39;100.00
84914;BME280;75177;43.832;5.974;2024-03-29T09:04:50;94218.31;;;14.42;100.00
84914;BME280;75177;43.832;5.974;2024-03-29T09:07:16;94233.38;;;14.49;100.00
84914;BME280;75177;43.832;5.974;2024-03-29T09:09:41;94224.09;;;14.45;100.00
84914;BME280;75177;43.832;5.974;2024-03-29T09:12:08;94210.69;;;14.45;100.00
84914;BME280;75177;43.832;5.974;2024-03-29T09:14:33;94216.38;;;14.56;100.00
84914;BME280;75177;43.832;5.974;2024-03-29T09:16:59;94196.09;;;14.60;100.00
84914;BME280;75177;43.832;5.974;2024-03-29T09:19:24;94213.44;;;14.64;100.00
84914;BME280;75177;43.832;5.974;2024-03-29T09:21:50;94219.22;;;14.61;100.00
84914;BME280;75177;43.832;5.974;2024-03-29T09:24:15;94194.03;;;14.62;100.00
84914;BME280;75177;43.832;5.974;2024-03-29T09:26:43;94211.13;;;14.67;100.00
84914;BME280;75177;43.832;5.974;2024-03-29T09:29:08;94213.00;;;14.67;100.00
84914;BME280;75177;43.832;5.974;2024-03-29T09:31:34;94212.56;;;14.70;100.00
84914;BME280;75177;43.832;5.974;2024-03-29T09:34:00;94205.88;;;14.79;100.00
84914;BME280;75177;43.832;5.974;2024-03-29T09:36:25;94199.91;;;14.77;100.00
84914;BME280;75177;43.832;5.974;2024-03-29T09:38:51;94200.94;;;14.76;100.00
84914;BME280;75177;43.832;5.974;2024-03-29T09:41:18;94202.31;;;14.85;100.00
84914;BME280;75177;43.832;5.974;2024-03-29T09:43:45;94199.19;;;14.88;100.00
84914;BME280;75177;43.832;5.974;2024-03-29T09:46:15;94204.56;;;14.88;100.00
84914;BME280;75177;43.832;5.974;2024-03-29T09:48:42;94214.41;;;14.94;100.00
84914;BME280;75177;43.832;5.974;2024-03-29T09:51:11;94214.91;;;15.09;100.00
84914;BME280;75177;43.832;5.974;2024-03-29T09:53:41;94200.28;;;15.05;100.00
84914;BME280;75177;43.832;5.974;2024-03-29T09:56:07;94196.09;;;15.09;100.00
84914;BME280;75177;43.832;5.974;2024-03-29T09:58:33;94204.03;;;15.04;100.00
84914;BME280;75177;43.832;5.974;2024-03-29T10:00:59;94199.69;;;15.03;100.00
84914;BME280;75177;43.832;5.974;2024-03-29T10:03:25;94207.75;;;15.03;100.00
84914;BME280;75177;43.832;5.974;2024-03-29T10:06:01;94194.78;;;15.18;100.00
84914;BME280;75177;43.832;5.974;2024-03-29T10:08:27;94204.19;;;15.27;100.00
84914;BME280;75177;43.832;5.974;2024-03-29T10:10:56;94210.41;;;15.27;100.00
84914;BME280;75177;43.832;5.974;2024-03-29T10:13:21;94201.69;;;15.32;99.96
84914;BME280;75177;43.832;5.974;2024-03-29T10:15:51;94188.53;;;15.42;97.66
84914;BME280;75177;43.832;5.974;2024-03-29T10:18:18;94194.66;;;15.31;100.00
84914;BME280;75177;43.832;5.974;2024-03-29T10:20:45;94203.03;;;15.41;98.10
84914;BME280;75177;43.832;5.974;2024-03-29T10:23:11;94200.34;;;15.41;100.00
84914;BME280;75177;43.832;5.974;2024-03-29T10:25:36;94190.03;;;15.38;100.00
84914;BME280;75177;43.832;5.974;2024-03-29T10:28:02;94189.16;;;15.44;100.00
84914;BME280;75177;43.832;5.974;2024-03-29T10:30:28;94197.06;;;15.39;100.00
84914;BME280;75177;43.832;5.974;2024-03-29T10:32:56;94188.56;;;15.60;96.19
84914;BME280;75177;43.832;5.974;2024-03-29T10:35:22;94183.28;;;15.54;100.00
84914;BME280;75177;43.832;5.974;2024-03-29T10:37:48;94189.31;;;15.49;100.00
84914;BME280;75177;43.832;5.974;2024-03-29T10:40:13;94187.97;;;15.58;100.00
84914;BME280;75177;43.832;5.974;2024-03-29T10:42:41;94186.09;;;15.59;100.00
84914;BME280;75177;43.832;5.974;2024-03-29T10:45:08;94188.56;;;15.60;98.26
84914;BME280;75177;43.832;5.974;2024-03-29T10:47:34;94177.75;;;15.49;100.00
84914;BME280;75177;43.832;5.974;2024-03-29T10:49:59;94186.16;;;15.52;100.00
84914;BME280;75177;43.832;5.974;2024-03-29T10:52:25;94193.88;;;15.67;99.13
84914;BME280;75177;43.832;5.974;2024-03-29T10:54:52;94196.78;;;15.65;99.61
84914;BME280;75177;43.832;5.974;2024-03-29T10:57:24;94185.19;;;15.65;99.17
84914;BME280;75177;43.832;5.974;2024-03-29T11:00:12;94189.38;;;15.61;100.00
84914;BME280;75177;43.832;5.974;2024-03-29T11:03:09;94183.19;;;15.60;100.00
84914;BME280;75177;43.832;5.974;2024-03-29T11:05:44;94190.97;;;15.68;99.05
84914;BME280;75177;43.832;5.974;2024-03-29T11:08:12;94188.13;;;15.63;100.00
84914;BME280;75177;43.832;5.974;2024-03-29T11:10:44;94183.66;;;15.57;100.00
84914;BME280;75177;43.832;5.974;2024-03-29T11:15:59;94171.03;;;15.58;100.00
84914;BME280;75177;43.832;5.974;2024-03-29T11:18:26;94186.84;;;15.84;98.01
84914;BME280;75177;43.832;5.974;2024-03-29T11:20:53;94167.13;;;15.72;100.00
84914;BME280;75177;43.832;5.974;2024-03-29T11:23:20;94165.47;;;15.89;96.12
84914;BME280;75177;43.832;5.974;2024-03-29T11:25:49;94165.53;;;15.82;99.05
84914;BME280;75177;43.832;5.974;2024-03-29T11:28:32;94158.06;;;15.84;97.42
84914;BME280;75177;43.832;5.974;2024-03-29T11:31:08;94159.25;;;15.88;96.14
84914;BME280;75177;43.832;5.974;2024-03-29T11:33:44;94152.97;;;15.94;95.56
84914;BME280;75177;43.832;5.974;2024-03-29T11:36:19;94146.38;;;15.90;96.74
84914;BME280;75177;43.832;5.974;2024-03-29T11:38:47;94148.50;;;15.88;96.99
84914;BME280;75177;43.832;5.974;2024-03-29T11:41:16;94162.31;;;15.92;98.08
84914;BME280;75177;43.832;5.974;2024-03-29T11:43:42;94147.81;;;15.93;97.71
84914;BME280;75177;43.832;5.974;2024-03-29T11:46:14;94150.50;;;15.93;100.00
84914;BME280;75177;43.832;5.974;2024-03-29T11:48:41;94145.03;;;15.99;100.00
84914;BME280;75177;43.832;5.974;2024-03-29T11:51:09;94145.31;;;16.09;95.99
84914;BME280;75177;43.832;5.974;2024-03-29T11:53:36;94121.94;;;15.92;96.40
84914;BME280;75177;43.832;5.974;2024-03-29T11:56:03;94116.69;;;15.97;99.60
84914;BME280;75177;43.832;5.974;2024-03-29T11:58:30;94128.41;;;16.02;97.98
84914;BME280;75177;43.832;5.974;2024-03-29T12:00:57;94118.97;;;16.12;94.98
84914;BME280;75177;43.832;5.974;2024-03-29T12:03:25;94101.75;;;16.13;93.95
84914;BME280;75177;43.832;5.974;2024-03-29T12:05:51;94103.41;;;16.14;96.00
84914;BME280;75177;43.832;5.974;2024-03-29T12:08:19;94111.72;;;16.12;96.26
84914;BME280;75177;43.832;5.974;2024-03-29T12:10:45;94113.25;;;16.20;93.48
84914;BME280;75177;43.832;5.974;2024-03-29T12:13:10;94099.13;;;16.24;93.31
84914;BME280;75177;43.832;5.974;2024-03-29T12:15:36;94092.44;;;16.27;93.73
84914;BME280;75177;43.832;5.974;2024-03-29T12:18:05;94079.19;;;16.25;95.68
84914;BME280;75177;43.832;5.974;2024-03-29T12:20:35;94072.53;;;16.28;92.07
84914;BME280;75177;43.832;5.974;2024-03-29T12:23:03;94067.28;;;16.33;93.83
84914;BME280;75177;43.832;5.974;2024-03-29T12:25:30;94058.03;;;16.29;97.62
84914;BME280;75177;43.832;5.974;2024-03-29T12:27:57;94056.63;;;16.38;93.89
84914;BME280;75177;43.832;5.974;2024-03-29T12:30:23;94055.69;;;16.44;90.92
84914;BME280;75177;43.832;5.974;2024-03-29T12:32:48;94046.19;;;16.41;93.60
84914;BME280;75177;43.832;5.974;2024-03-29T12:35:15;94042.81;;;16.46;92.65
84914;BME280;75177;43.832;5.974;2024-03-29T12:37:48;94048.47;;;16.56;89.76
84914;BME280;75177;43.832;5.974;2024-03-29T12:40:16;94045.91;;;16.61;89.01
84914;BME280;75177;43.832;5.974;2024-03-29T12:42:50;94055.84;;;16.60;90.63
84914;BME280;75177;43.832;5.974;2024-03-29T12:45:19;94047.56;;;16.62;91.33
84914;BME280;75177;43.832;5.974;2024-03-29T12:47:46;94038.88;;;16.60;92.29
84914;BME280;75177;43.832;5.974;2024-03-29T12:50:19;94034.66;;;16.64;90.54
84914;BME280;75177;43.832;5.974;2024-03-29T12:52:49;94037.69;;;16.79;87.88